sensor_id;sensor_type;location;lat;lon;timestamp;P1;durP1;ratioP1;P2;durP2;ratioP2
20181;SDS011;10250;50.756;6.172;2023-03-01T00:01:14;9.23;;;2.70;;
20181;SDS011;10250;50.756;6.172;2023-03-01T00:03:16;9.90;;;2.80;;
20181;SDS011;10250;50.756;6.172;2023-03-01T00:05:17;10.50;;;2.37;;
20181;SDS011;10250;50.756;6.172;2023-03-01T00:07:18;9.17;;;2.43;;
20181;SDS011;10250;50.756;6.172;2023-03-01T00:09:19;8.63;;;2.73;;
20181;SDS011;10250;50.756;6.172;2023-03-01T00:11:21;7.47;;;2.40;;
20181;SDS011;10250;50.756;6.172;2023-03-01T00:13:22;8.97;;;2.27;;
20181;SDS011;10250;50.756;6.172;2023-03-01T00:15:23;11.00;;;3.23;;
20181;SDS011;10250;50.756;6.172;2023-03-01T00:17:24;8.03;;;2.27;;
20181;SDS011;10250;50.756;6.172;2023-03-01T00:19:25;11.90;;;2.80;;
20181;SDS011;10250;50.756;6.172;2023-03-01T00:21:26;10.20;;;2.23;;
20181;SDS011;10250;50.756;6.172;2023-03-01T00:23:28;7.93;;;2.33;;
20181;SDS011;10250;50.756;6.172;2023-03-01T00:25:29;8.23;;;2.30;;
20181;SDS011;10250;50.756;6.172;2023-03-01T00:27:30;8.43;;;2.20;;
20181;SDS011;10250;50.756;6.172;2023-03-01T00:29:31;9.00;;;2.60;;
20181;SDS011;10250;50.756;6.172;2023-03-01T00:31:32;9.77;;;2.80;;
20181;SDS011;10250;50.756;6.172;2023-03-01T00:33:33;9.90;;;2.27;;
20181;SDS011;10250;50.756;6.172;2023-03-01T00:35:35;7.77;;;2.20;;
20181;SDS011;10250;50.756;6.172;2023-03-01T00:37:36;8.90;;;2.23;;
20181;SDS011;10250;50.756;6.172;2023-03-01T00:39:37;7.57;;;2.30;;
20181;SDS011;10250;50.756;6.172;2023-03-01T00:41:38;9.27;;;2.13;;
20181;SDS011;10250;50.756;6.172;2023-03-01T00:43:40;9.50;;;2.87;;
20181;SDS011;10250;50.756;6.172;2023-03-01T00:45:41;9.13;;;2.57;;
20181;SDS011;10250;50.756;6.172;2023-03-01T00:47:42;9.47;;;2.87;;
20181;SDS011;10250;50.756;6.172;2023-03-01T00:49:43;8.53;;;2.40;;
20181;SDS011;10250;50.756;6.172;2023-03-01T00:51:44;10.93;;;2.63;;
20181;SDS011;10250;50.756;6.172;2023-03-01T00:53:45;10.20;;;2.60;;
20181;SDS011;10250;50.756;6.172;2023-03-01T00:55:46;7.80;;;2.40;;
20181;SDS011;10250;50.756;6.172;2023-03-01T00:57:47;10.03;;;2.70;;
20181;SDS011;10250;50.756;6.172;2023-03-01T00:59:48;8.27;;;2.13;;
20181;SDS011;10250;50.756;6.172;2023-03-01T01:01:49;9.00;;;2.50;;
20181;SDS011;10250;50.756;6.172;2023-03-01T01:03:51;11.43;;;3.27;;
20181;SDS011;10250;50.756;6.172;2023-03-01T01:05:53;9.53;;;2.30;;
20181;SDS011;10250;50.756;6.172;2023-03-01T01:07:54;10.00;;;2.80;;
20181;SDS011;10250;50.756;6.172;2023-03-01T01:09:55;9.07;;;2.60;;
20181;SDS011;10250;50.756;6.172;2023-03-01T01:11:56;10.40;;;3.33;;
20181;SDS011;10250;50.756;6.172;2023-03-01T01:13:57;10.27;;;2.77;;
20181;SDS011;10250;50.756;6.172;2023-03-01T01:16:01;10.67;;;2.80;;
20181;SDS011;10250;50.756;6.172;2023-03-01T01:18:03;7.57;;;2.23;;
20181;SDS011;10250;50.756;6.172;2023-03-01T01:20:04;10.83;;;2.60;;
20181;SDS011;10250;50.756;6.172;2023-03-01T01:22:05;12.60;;;3.30;;
20181;SDS011;10250;50.756;6.172;2023-03-01T01:24:06;9.93;;;2.60;;
20181;SDS011;10250;50.756;6.172;2023-03-01T01:26:09;9.67;;;2.47;;
20181;SDS011;10250;50.756;6.172;2023-03-01T01:28:11;10.30;;;3.00;;
20181;SDS011;10250;50.756;6.172;2023-03-01T01:30:12;10.03;;;2.60;;
20181;SDS011;10250;50.756;6.172;2023-03-01T01:32:13;11.40;;;2.53;;
20181;SDS011;10250;50.756;6.172;2023-03-01T01:34:15;9.47;;;2.77;;
20181;SDS011;10250;50.756;6.172;2023-03-01T01:36:16;9.83;;;2.80;;
20181;SDS011;10250;50.756;6.172;2023-03-01T01:38:17;12.20;;;2.80;;
20181;SDS011;10250;50.756;6.172;2023-03-01T01:40:18;11.50;;;2.80;;
20181;SDS011;10250;50.756;6.172;2023-03-01T01:42:19;16.00;;;2.87;;
20181;SDS011;10250;50.756;6.172;2023-03-01T01:44:21;12.17;;;3.13;;
20181;SDS011;10250;50.756;6.172;2023-03-01T01:46:25;11.23;;;3.17;;
20181;SDS011;10250;50.756;6.172;2023-03-01T01:48:32;10.50;;;2.73;;
20181;SDS011;10250;50.756;6.172;2023-03-01T01:50:40;8.80;;;2.50;;
20181;SDS011;10250;50.756;6.172;2023-03-01T01:52:45;9.37;;;2.50;;
20181;SDS011;10250;50.756;6.172;2023-03-01T01:55:05;10.77;;;2.90;;
20181;SDS011;10250;50.756;6.172;2023-03-01T01:57:09;8.37;;;2.30;;
20181;SDS011;10250;50.756;6.172;2023-03-01T01:59:11;10.60;;;2.60;;
20181;SDS011;10250;50.756;6.172;2023-03-01T02:01:13;9.10;;;2.73;;
20181;SDS011;10250;50.756;6.172;2023-03-01T02:03:14;11.37;;;3.30;;
20181;SDS011;10250;50.756;6.172;2023-03-01T02:05:20;12.50;;;2.93;;
20181;SDS011;10250;50.756;6.172;2023-03-01T02:07:23;13.93;;;2.77;;
20181;SDS011;10250;50.756;6.172;2023-03-01T02:09:24;9.70;;;2.53;;
20181;SDS011;10250;50.756;6.172;2023-03-01T02:11:25;7.67;;;2.53;;
20181;SDS011;10250;50.756;6.172;2023-03-01T02:13:27;10.70;;;2.60;;
20181;SDS011;10250;50.756;6.172;2023-03-01T02:15:31;10.03;;;2.83;;
20181;SDS011;10250;50.756;6.172;2023-03-01T02:17:33;9.77;;;2.63;;
20181;SDS011;10250;50.756;6.172;2023-03-01T02:19:40;7.43;;;2.67;;
20181;SDS011;10250;50.756;6.172;2023-03-01T02:22:03;9.93;;;2.57;;
20181;SDS011;10250;50.756;6.172;2023-03-01T02:26:41;7.47;;;2.30;;
20181;SDS011;10250;50.756;6.172;2023-03-01T02:28:43;10.23;;;3.07;;
20181;SDS011;10250;50.756;6.172;2023-03-01T02:30:46;9.47;;;2.73;;
20181;SDS011;10250;50.756;6.172;2023-03-01T02:33:06;9.27;;;2.30;;
20181;SDS011;10250;50.756;6.172;2023-03-01T02:35:12;9.03;;;2.57;;
20181;SDS011;10250;50.756;6.172;2023-03-01T02:37:15;9.43;;;2.97;;
20181;SDS011;10250;50.756;6.172;2023-03-01T02:39:28;8.07;;;2.37;;
20181;SDS011;10250;50.756;6.172;2023-03-01T02:41:32;11.00;;;3.20;;
20181;SDS011;10250;50.756;6.172;2023-03-01T02:43:35;10.97;;;3.17;;
20181;SDS011;10250;50.756;6.172;2023-03-01T02:45:36;12.83;;;3.70;;
20181;SDS011;10250;50.756;6.172;2023-03-01T02:47:37;12.07;;;3.03;;
20181;SDS011;10250;50.756;6.172;2023-03-01T02:49:38;15.90;;;3.30;;
20181;SDS011;10250;50.756;6.172;2023-03-01T02:51:45;10.40;;;3.13;;
20181;SDS011;10250;50.756;6.172;2023-03-01T02:55:58;10.73;;;2.93;;
20181;SDS011;10250;50.756;6.172;2023-03-01T02:57:59;10.63;;;2.90;;
20181;SDS011;10250;50.756;6.172;2023-03-01T03:00:04;12.47;;;3.20;;
20181;SDS011;10250;50.756;6.172;2023-03-01T03:02:07;8.93;;;2.60;;
20181;SDS011;10250;50.756;6.172;2023-03-01T03:04:10;11.77;;;2.97;;
20181;SDS011;10250;50.756;6.172;2023-03-01T03:06:11;9.97;;;3.13;;
20181;SDS011;10250;50.756;6.172;2023-03-01T03:08:12;10.77;;;3.10;;
20181;SDS011;10250;50.756;6.172;2023-03-01T03:10:35;10.47;;;3.03;;
20181;SDS011;10250;50.756;6.172;2023-03-01T03:12:37;10.40;;;2.77;;
20181;SDS011;10250;50.756;6.172;2023-03-01T03:14:38;11.17;;;2.60;;
20181;SDS011;10250;50.756;6.172;2023-03-01T03:16:40;10.40;;;3.10;;
20181;SDS011;10250;50.756;6.172;2023-03-01T03:18:41;9.50;;;2.73;;
20181;SDS011;10250;50.756;6.172;2023-03-01T03:20:42;8.20;;;2.63;;
20181;SDS011;10250;50.756;6.172;2023-03-01T03:22:44;15.73;;;3.43;;
20181;SDS011;10250;50.756;6.172;2023-03-01T03:24:46;8.90;;;2.70;;
20181;SDS011;10250;50.756;6.172;2023-03-01T03:26:47;10.90;;;3.10;;
20181;SDS011;10250;50.756;6.172;2023-03-01T03:28:48;10.07;;;2.90;;
20181;SDS011;10250;50.756;6.172;2023-03-01T03:30:48;11.97;;;3.43;;
20181;SDS011;10250;50.756;6.172;2023-03-01T03:32:50;12.67;;;3.50;;
20181;SDS011;10250;50.756;6.172;2023-03-01T03:34:53;12.80;;;3.10;;
20181;SDS011;10250;50.756;6.172;2023-03-01T03:36:55;11.07;;;3.10;;
20181;SDS011;10250;50.756;6.172;2023-03-01T03:39:02;10.43;;;2.57;;
20181;SDS011;10250;50.756;6.172;2023-03-01T03:41:06;13.00;;;3.17;;
20181;SDS011;10250;50.756;6.172;2023-03-01T03:43:09;9.27;;;2.80;;
20181;SDS011;10250;50.756;6.172;2023-03-01T03:45:10;10.27;;;2.53;;
20181;SDS011;10250;50.756;6.172;2023-03-01T03:47:11;12.60;;;2.97;;
20181;SDS011;10250;50.756;6.172;2023-03-01T03:49:12;11.27;;;2.90;;
20181;SDS011;10250;50.756;6.172;2023-03-01T03:51:13;11.60;;;2.87;;
20181;SDS011;10250;50.756;6.172;2023-03-01T03:53:15;16.43;;;3.27;;
20181;SDS011;10250;50.756;6.172;2023-03-01T03:55:16;9.50;;;2.70;;
20181;SDS011;10250;50.756;6.172;2023-03-01T03:57:19;9.40;;;2.80;;
20181;SDS011;10250;50.756;6.172;2023-03-01T03:59:21;10.50;;;3.10;;
20181;SDS011;10250;50.756;6.172;2023-03-01T04:01:22;12.73;;;3.17;;
20181;SDS011;10250;50.756;6.172;2023-03-01T04:03:24;11.23;;;2.80;;
20181;SDS011;10250;50.756;6.172;2023-03-01T04:05:25;12.27;;;3.47;;
20181;SDS011;10250;50.756;6.172;2023-03-01T04:07:26;12.30;;;3.13;;
20181;SDS011;10250;50.756;6.172;2023-03-01T04:09:27;9.97;;;2.87;;
20181;SDS011;10250;50.756;6.172;2023-03-01T04:11:30;11.00;;;2.73;;
20181;SDS011;10250;50.756;6.172;2023-03-01T04:13:31;12.40;;;3.40;;
20181;SDS011;10250;50.756;6.172;2023-03-01T04:15:32;8.43;;;2.63;;
20181;SDS011;10250;50.756;6.172;2023-03-01T04:17:33;10.47;;;2.63;;
20181;SDS011;10250;50.756;6.172;2023-03-01T04:19:35;12.77;;;3.17;;
20181;SDS011;10250;50.756;6.172;2023-03-01T04:21:36;8.90;;;2.50;;
20181;SDS011;10250;50.756;6.172;2023-03-01T04:23:37;12.83;;;3.10;;
20181;SDS011;10250;50.756;6.172;2023-03-01T04:25:57;8.00;;;2.13;;
20181;SDS011;10250;50.756;6.172;2023-03-01T04:27:58;9.67;;;2.50;;
20181;SDS011;10250;50.756;6.172;2023-03-01T04:29:59;11.60;;;2.60;;
20181;SDS011;10250;50.756;6.172;2023-03-01T04:32:00;9.67;;;2.60;;
20181;SDS011;10250;50.756;6.172;2023-03-01T04:34:02;9.77;;;2.60;;
20181;SDS011;10250;50.756;6.172;2023-03-01T04:36:03;10.53;;;2.97;;
20181;SDS011;10250;50.756;6.172;2023-03-01T04:38:05;8.43;;;2.27;;
20181;SDS011;10250;50.756;6.172;2023-03-01T04:40:06;13.07;;;3.03;;
20181;SDS011;10250;50.756;6.172;2023-03-01T04:42:16;9.17;;;2.57;;
20181;SDS011;10250;50.756;6.172;2023-03-01T04:44:17;9.53;;;2.87;;
20181;SDS011;10250;50.756;6.172;2023-03-01T04:46:20;9.83;;;3.03;;
20181;SDS011;10250;50.756;6.172;2023-03-01T04:48:28;9.53;;;2.47;;
20181;SDS011;10250;50.756;6.172;2023-03-01T04:50:29;10.37;;;2.80;;
20181;SDS011;10250;50.756;6.172;2023-03-01T04:52:30;8.10;;;2.43;;
20181;SDS011;10250;50.756;6.172;2023-03-01T04:54:32;12.07;;;3.30;;
20181;SDS011;10250;50.756;6.172;2023-03-01T04:56:33;11.27;;;2.93;;
20181;SDS011;10250;50.756;6.172;2023-03-01T04:58:34;8.07;;;2.37;;
20181;SDS011;10250;50.756;6.172;2023-03-01T05:00:35;11.60;;;3.07;;
20181;SDS011;10250;50.756;6.172;2023-03-01T05:02:36;10.03;;;3.03;;
20181;SDS011;10250;50.756;6.172;2023-03-01T05:04:37;11.37;;;3.13;;
20181;SDS011;10250;50.756;6.172;2023-03-01T05:06:38;10.20;;;2.80;;
20181;SDS011;10250;50.756;6.172;2023-03-01T05:08:39;12.40;;;3.07;;
20181;SDS011;10250;50.756;6.172;2023-03-01T05:10:40;8.17;;;2.23;;
20181;SDS011;10250;50.756;6.172;2023-03-01T05:12:42;9.67;;;2.70;;
20181;SDS011;10250;50.756;6.172;2023-03-01T05:14:42;10.87;;;2.93;;
20181;SDS011;10250;50.756;6.172;2023-03-01T05:16:43;13.77;;;3.70;;
20181;SDS011;10250;50.756;6.172;2023-03-01T05:18:44;13.40;;;3.50;;
20181;SDS011;10250;50.756;6.172;2023-03-01T05:20:46;12.13;;;3.30;;
20181;SDS011;10250;50.756;6.172;2023-03-01T05:22:47;11.53;;;3.40;;
20181;SDS011;10250;50.756;6.172;2023-03-01T05:24:48;10.50;;;3.30;;
20181;SDS011;10250;50.756;6.172;2023-03-01T05:26:49;10.20;;;3.03;;
20181;SDS011;10250;50.756;6.172;2023-03-01T05:28:51;10.60;;;2.93;;
20181;SDS011;10250;50.756;6.172;2023-03-01T05:30:56;9.57;;;2.70;;
20181;SDS011;10250;50.756;6.172;2023-03-01T05:32:57;9.97;;;2.70;;
20181;SDS011;10250;50.756;6.172;2023-03-01T05:34:58;10.57;;;3.27;;
20181;SDS011;10250;50.756;6.172;2023-03-01T05:36:59;13.40;;;3.33;;
20181;SDS011;10250;50.756;6.172;2023-03-01T05:39:01;11.43;;;2.77;;
20181;SDS011;10250;50.756;6.172;2023-03-01T05:41:01;8.90;;;2.77;;
20181;SDS011;10250;50.756;6.172;2023-03-01T05:43:03;9.20;;;2.90;;
20181;SDS011;10250;50.756;6.172;2023-03-01T05:45:05;14.47;;;3.80;;
20181;SDS011;10250;50.756;6.172;2023-03-01T05:47:09;7.33;;;2.70;;
20181;SDS011;10250;50.756;6.172;2023-03-01T05:49:10;9.90;;;2.77;;
20181;SDS011;10250;50.756;6.172;2023-03-01T05:51:13;8.83;;;2.60;;
20181;SDS011;10250;50.756;6.172;2023-03-01T05:55:16;10.47;;;3.03;;
20181;SDS011;10250;50.756;6.172;2023-03-01T05:57:17;10.63;;;2.83;;
20181;SDS011;10250;50.756;6.172;2023-03-01T05:59:18;12.70;;;3.30;;
20181;SDS011;10250;50.756;6.172;2023-03-01T06:01:19;10.83;;;3.03;;
20181;SDS011;10250;50.756;6.172;2023-03-01T06:03:20;10.43;;;2.93;;
20181;SDS011;10250;50.756;6.172;2023-03-01T06:05:21;7.97;;;2.13;;
20181;SDS011;10250;50.756;6.172;2023-03-01T06:07:22;9.27;;;2.57;;
20181;SDS011;10250;50.756;6.172;2023-03-01T06:09:23;10.53;;;2.73;;
20181;SDS011;10250;50.756;6.172;2023-03-01T06:11:25;14.83;;;4.37;;
20181;SDS011;10250;50.756;6.172;2023-03-01T06:13:26;12.60;;;3.17;;
20181;SDS011;10250;50.756;6.172;2023-03-01T06:15:27;8.57;;;2.90;;
20181;SDS011;10250;50.756;6.172;2023-03-01T06:17:29;11.27;;;3.03;;
20181;SDS011;10250;50.756;6.172;2023-03-01T06:19:30;9.07;;;2.50;;
20181;SDS011;10250;50.756;6.172;2023-03-01T06:21:31;12.53;;;3.60;;
20181;SDS011;10250;50.756;6.172;2023-03-01T06:23:32;11.80;;;3.27;;
20181;SDS011;10250;50.756;6.172;2023-03-01T06:25:33;11.40;;;3.20;;
20181;SDS011;10250;50.756;6.172;2023-03-01T06:27:34;9.67;;;2.53;;
20181;SDS011;10250;50.756;6.172;2023-03-01T06:29:36;13.00;;;3.37;;
20181;SDS011;10250;50.756;6.172;2023-03-01T06:31:37;12.10;;;3.43;;
20181;SDS011;10250;50.756;6.172;2023-03-01T06:33:38;9.23;;;2.93;;
20181;SDS011;10250;50.756;6.172;2023-03-01T06:35:39;10.73;;;3.23;;
20181;SDS011;10250;50.756;6.172;2023-03-01T06:37:40;10.97;;;3.20;;
20181;SDS011;10250;50.756;6.172;2023-03-01T06:39:42;8.87;;;2.83;;
20181;SDS011;10250;50.756;6.172;2023-03-01T06:41:43;8.80;;;2.47;;
20181;SDS011;10250;50.756;6.172;2023-03-01T06:43:44;11.97;;;3.07;;
20181;SDS011;10250;50.756;6.172;2023-03-01T06:45:45;15.10;;;3.50;;
20181;SDS011;10250;50.756;6.172;2023-03-01T06:47:46;10.23;;;3.07;;
20181;SDS011;10250;50.756;6.172;2023-03-01T06:49:47;12.07;;;2.53;;
20181;SDS011;10250;50.756;6.172;2023-03-01T06:51:48;11.47;;;3.60;;
20181;SDS011;10250;50.756;6.172;2023-03-01T06:53:49;11.40;;;3.03;;
20181;SDS011;10250;50.756;6.172;2023-03-01T06:55:54;10.90;;;3.00;;
20181;SDS011;10250;50.756;6.172;2023-03-01T06:57:56;12.77;;;3.27;;
20181;SDS011;10250;50.756;6.172;2023-03-01T06:59:57;10.60;;;3.30;;
20181;SDS011;10250;50.756;6.172;2023-03-01T07:01:58;15.70;;;4.10;;
20181;SDS011;10250;50.756;6.172;2023-03-01T07:03:59;13.33;;;3.13;;
20181;SDS011;10250;50.756;6.172;2023-03-01T07:06:00;12.90;;;3.63;;
20181;SDS011;10250;50.756;6.172;2023-03-01T07:08:02;11.70;;;3.00;;
20181;SDS011;10250;50.756;6.172;2023-03-01T07:10:03;13.33;;;3.57;;
20181;SDS011;10250;50.756;6.172;2023-03-01T07:12:04;12.13;;;3.33;;
20181;SDS011;10250;50.756;6.172;2023-03-01T07:14:05;14.60;;;3.17;;
20181;SDS011;10250;50.756;6.172;2023-03-01T07:16:07;13.47;;;3.17;;
20181;SDS011;10250;50.756;6.172;2023-03-01T07:18:08;12.43;;;3.07;;
20181;SDS011;10250;50.756;6.172;2023-03-01T07:20:09;12.43;;;3.30;;
20181;SDS011;10250;50.756;6.172;2023-03-01T07:22:10;14.77;;;4.27;;
20181;SDS011;10250;50.756;6.172;2023-03-01T07:24:11;8.97;;;2.53;;
20181;SDS011;10250;50.756;6.172;2023-03-01T07:26:12;10.27;;;3.10;;
20181;SDS011;10250;50.756;6.172;2023-03-01T07:28:13;13.03;;;4.00;;
20181;SDS011;10250;50.756;6.172;2023-03-01T07:30:14;11.37;;;3.17;;
20181;SDS011;10250;50.756;6.172;2023-03-01T07:32:15;10.97;;;3.20;;
20181;SDS011;10250;50.756;6.172;2023-03-01T07:34:16;10.93;;;3.13;;
20181;SDS011;10250;50.756;6.172;2023-03-01T07:36:17;11.70;;;3.73;;
20181;SDS011;10250;50.756;6.172;2023-03-01T07:38:18;11.20;;;3.30;;
20181;SDS011;10250;50.756;6.172;2023-03-01T07:40:19;11.50;;;3.17;;
20181;SDS011;10250;50.756;6.172;2023-03-01T07:42:20;14.67;;;3.93;;
20181;SDS011;10250;50.756;6.172;2023-03-01T07:44:21;14.93;;;3.57;;
20181;SDS011;10250;50.756;6.172;2023-03-01T07:46:22;10.03;;;2.87;;
20181;SDS011;10250;50.756;6.172;2023-03-01T07:48:23;10.73;;;3.20;;
20181;SDS011;10250;50.756;6.172;2023-03-01T07:50:24;12.03;;;3.40;;
20181;SDS011;10250;50.756;6.172;2023-03-01T07:52:25;10.83;;;2.80;;
20181;SDS011;10250;50.756;6.172;2023-03-01T07:54:26;13.53;;;3.40;;
20181;SDS011;10250;50.756;6.172;2023-03-01T07:56:27;12.70;;;3.60;;
20181;SDS011;10250;50.756;6.172;2023-03-01T07:58:28;10.83;;;3.30;;
20181;SDS011;10250;50.756;6.172;2023-03-01T08:00:29;14.60;;;3.77;;
20181;SDS011;10250;50.756;6.172;2023-03-01T08:02:30;13.90;;;3.00;;
20181;SDS011;10250;50.756;6.172;2023-03-01T08:04:31;10.57;;;3.17;;
20181;SDS011;10250;50.756;6.172;2023-03-01T08:06:33;13.40;;;3.43;;
20181;SDS011;10250;50.756;6.172;2023-03-01T08:08:35;15.97;;;4.00;;
20181;SDS011;10250;50.756;6.172;2023-03-01T08:10:36;11.47;;;3.50;;
20181;SDS011;10250;50.756;6.172;2023-03-01T08:12:37;12.50;;;3.13;;
20181;SDS011;10250;50.756;6.172;2023-03-01T08:14:38;13.17;;;3.40;;
20181;SDS011;10250;50.756;6.172;2023-03-01T08:16:39;11.93;;;3.97;;
20181;SDS011;10250;50.756;6.172;2023-03-01T08:18:40;9.27;;;2.47;;
20181;SDS011;10250;50.756;6.172;2023-03-01T08:20:41;10.57;;;3.00;;
20181;SDS011;10250;50.756;6.172;2023-03-01T08:22:42;11.57;;;3.30;;
20181;SDS011;10250;50.756;6.172;2023-03-01T08:24:43;13.43;;;3.77;;
20181;SDS011;10250;50.756;6.172;2023-03-01T08:26:44;11.37;;;3.77;;
20181;SDS011;10250;50.756;6.172;2023-03-01T08:28:45;15.60;;;3.90;;
20181;SDS011;10250;50.756;6.172;2023-03-01T08:30:46;10.80;;;3.50;;
20181;SDS011;10250;50.756;6.172;2023-03-01T08:32:47;12.37;;;3.67;;
20181;SDS011;10250;50.756;6.172;2023-03-01T08:34:48;13.97;;;4.13;;
20181;SDS011;10250;50.756;6.172;2023-03-01T08:36:49;14.23;;;3.37;;
20181;SDS011;10250;50.756;6.172;2023-03-01T08:38:51;14.70;;;3.47;;
20181;SDS011;10250;50.756;6.172;2023-03-01T08:40:53;12.03;;;3.67;;
20181;SDS011;10250;50.756;6.172;2023-03-01T08:42:53;15.43;;;4.10;;
20181;SDS011;10250;50.756;6.172;2023-03-01T08:44:54;13.33;;;3.63;;
20181;SDS011;10250;50.756;6.172;2023-03-01T08:46:56;11.43;;;3.03;;
20181;SDS011;10250;50.756;6.172;2023-03-01T08:48:58;12.27;;;3.70;;
20181;SDS011;10250;50.756;6.172;2023-03-01T08:51:07;13.40;;;3.73;;
20181;SDS011;10250;50.756;6.172;2023-03-01T08:53:08;13.87;;;4.23;;
20181;SDS011;10250;50.756;6.172;2023-03-01T08:55:09;14.20;;;3.63;;
20181;SDS011;10250;50.756;6.172;2023-03-01T08:57:10;15.20;;;3.40;;
20181;SDS011;10250;50.756;6.172;2023-03-01T08:59:13;14.80;;;3.93;;
20181;SDS011;10250;50.756;6.172;2023-03-01T09:01:15;11.83;;;3.43;;
20181;SDS011;10250;50.756;6.172;2023-03-01T09:03:17;10.60;;;3.00;;
20181;SDS011;10250;50.756;6.172;2023-03-01T09:05:18;14.27;;;3.87;;
20181;SDS011;10250;50.756;6.172;2023-03-01T09:07:19;16.53;;;3.60;;
20181;SDS011;10250;50.756;6.172;2023-03-01T09:09:20;17.00;;;3.83;;
20181;SDS011;10250;50.756;6.172;2023-03-01T09:11:21;13.43;;;3.20;;
20181;SDS011;10250;50.756;6.172;2023-03-01T09:13:22;15.47;;;3.97;;
20181;SDS011;10250;50.756;6.172;2023-03-01T09:15:27;12.07;;;3.83;;
20181;SDS011;10250;50.756;6.172;2023-03-01T09:17:28;12.83;;;3.60;;
20181;SDS011;10250;50.756;6.172;2023-03-01T09:19:29;13.90;;;4.00;;
20181;SDS011;10250;50.756;6.172;2023-03-01T09:21:30;11.70;;;3.37;;
20181;SDS011;10250;50.756;6.172;2023-03-01T09:23:32;13.13;;;3.43;;
20181;SDS011;10250;50.756;6.172;2023-03-01T09:25:34;12.27;;;3.87;;
20181;SDS011;10250;50.756;6.172;2023-03-01T09:27:35;14.20;;;3.73;;
20181;SDS011;10250;50.756;6.172;2023-03-01T09:29:36;16.97;;;4.00;;
20181;SDS011;10250;50.756;6.172;2023-03-01T09:31:37;18.53;;;4.60;;
20181;SDS011;10250;50.756;6.172;2023-03-01T09:33:39;13.77;;;3.47;;
20181;SDS011;10250;50.756;6.172;2023-03-01T09:35:40;15.50;;;4.30;;
20181;SDS011;10250;50.756;6.172;2023-03-01T09:37:45;16.37;;;4.97;;
20181;SDS011;10250;50.756;6.172;2023-03-01T09:39:46;14.67;;;3.40;;
20181;SDS011;10250;50.756;6.172;2023-03-01T09:42:01;11.43;;;3.23;;
20181;SDS011;10250;50.756;6.172;2023-03-01T09:44:12;11.00;;;3.53;;
20181;SDS011;10250;50.756;6.172;2023-03-01T09:46:16;14.60;;;4.00;;
20181;SDS011;10250;50.756;6.172;2023-03-01T09:48:18;15.30;;;4.43;;
20181;SDS011;10250;50.756;6.172;2023-03-01T09:50:22;14.03;;;4.10;;
20181;SDS011;10250;50.756;6.172;2023-03-01T09:52:34;16.60;;;4.87;;
20181;SDS011;10250;50.756;6.172;2023-03-01T09:54:36;13.17;;;3.57;;
20181;SDS011;10250;50.756;6.172;2023-03-01T09:56:52;14.93;;;3.50;;
20181;SDS011;10250;50.756;6.172;2023-03-01T09:58:58;12.07;;;3.73;;
20181;SDS011;10250;50.756;6.172;2023-03-01T10:01:02;13.13;;;3.53;;
20181;SDS011;10250;50.756;6.172;2023-03-01T10:03:09;10.97;;;3.30;;
20181;SDS011;10250;50.756;6.172;2023-03-01T10:09:33;12.97;;;3.33;;
20181;SDS011;10250;50.756;6.172;2023-03-01T10:11:38;12.07;;;3.60;;
20181;SDS011;10250;50.756;6.172;2023-03-01T10:16:03;12.90;;;3.57;;
20181;SDS011;10250;50.756;6.172;2023-03-01T10:18:09;12.53;;;3.70;;
20181;SDS011;10250;50.756;6.172;2023-03-01T10:24:23;13.43;;;3.53;;
20181;SDS011;10250;50.756;6.172;2023-03-01T10:26:44;14.67;;;3.60;;
20181;SDS011;10250;50.756;6.172;2023-03-01T10:28:57;12.17;;;3.73;;
20181;SDS011;10250;50.756;6.172;2023-03-01T10:31:00;11.67;;;3.47;;
20181;SDS011;10250;50.756;6.172;2023-03-01T10:33:01;14.27;;;3.90;;
20181;SDS011;10250;50.756;6.172;2023-03-01T10:35:14;13.90;;;3.43;;
20181;SDS011;10250;50.756;6.172;2023-03-01T10:37:17;14.80;;;3.63;;
20181;SDS011;10250;50.756;6.172;2023-03-01T10:39:21;11.57;;;3.30;;
20181;SDS011;10250;50.756;6.172;2023-03-01T10:41:24;14.43;;;3.50;;
20181;SDS011;10250;50.756;6.172;2023-03-01T10:43:26;14.57;;;3.87;;
20181;SDS011;10250;50.756;6.172;2023-03-01T10:45:35;13.43;;;4.17;;
20181;SDS011;10250;50.756;6.172;2023-03-01T10:47:37;11.23;;;3.27;;
20181;SDS011;10250;50.756;6.172;2023-03-01T10:49:38;13.77;;;3.80;;
20181;SDS011;10250;50.756;6.172;2023-03-01T10:51:40;13.23;;;3.77;;
20181;SDS011;10250;50.756;6.172;2023-03-01T10:53:41;13.03;;;4.50;;
20181;SDS011;10250;50.756;6.172;2023-03-01T10:55:43;13.43;;;4.13;;
20181;SDS011;10250;50.756;6.172;2023-03-01T10:57:44;16.03;;;3.90;;
20181;SDS011;10250;50.756;6.172;2023-03-01T10:59:45;15.60;;;4.30;;
20181;SDS011;10250;50.756;6.172;2023-03-01T11:01:47;13.97;;;3.40;;
20181;SDS011;10250;50.756;6.172;2023-03-01T11:08:12;14.87;;;4.33;;
20181;SDS011;10250;50.756;6.172;2023-03-01T11:10:17;14.67;;;4.07;;
20181;SDS011;10250;50.756;6.172;2023-03-01T11:12:18;13.87;;;3.70;;
20181;SDS011;10250;50.756;6.172;2023-03-01T11:14:23;13.53;;;4.30;;
20181;SDS011;10250;50.756;6.172;2023-03-01T11:16:31;17.43;;;3.97;;
20181;SDS011;10250;50.756;6.172;2023-03-01T11:18:33;15.43;;;4.40;;
20181;SDS011;10250;50.756;6.172;2023-03-01T11:20:36;13.97;;;4.33;;
20181;SDS011;10250;50.756;6.172;2023-03-01T11:22:39;15.30;;;3.90;;
20181;SDS011;10250;50.756;6.172;2023-03-01T11:24:44;13.53;;;4.53;;
20181;SDS011;10250;50.756;6.172;2023-03-01T11:26:47;20.60;;;4.57;;
20181;SDS011;10250;50.756;6.172;2023-03-01T11:28:51;13.43;;;3.67;;
20181;SDS011;10250;50.756;6.172;2023-03-01T11:31:07;15.23;;;4.53;;
20181;SDS011;10250;50.756;6.172;2023-03-01T11:33:13;14.07;;;3.73;;
20181;SDS011;10250;50.756;6.172;2023-03-01T11:35:18;15.67;;;4.83;;
20181;SDS011;10250;50.756;6.172;2023-03-01T11:41:32;14.13;;;4.33;;
20181;SDS011;10250;50.756;6.172;2023-03-01T11:43:42;16.30;;;4.20;;
20181;SDS011;10250;50.756;6.172;2023-03-01T11:50:17;16.17;;;4.47;;
20181;SDS011;10250;50.756;6.172;2023-03-01T11:52:22;14.90;;;4.33;;
20181;SDS011;10250;50.756;6.172;2023-03-01T11:56:52;12.97;;;3.70;;
20181;SDS011;10250;50.756;6.172;2023-03-01T12:01:11;15.17;;;4.17;;
20181;SDS011;10250;50.756;6.172;2023-03-01T12:09:52;15.53;;;4.03;;
20181;SDS011;10250;50.756;6.172;2023-03-01T12:14:32;15.17;;;5.03;;
20181;SDS011;10250;50.756;6.172;2023-03-01T12:23:01;17.83;;;4.87;;
20181;SDS011;10250;50.756;6.172;2023-03-01T12:27:19;15.63;;;4.97;;
20181;SDS011;10250;50.756;6.172;2023-03-01T12:49:12;15.50;;;4.00;;
20181;SDS011;10250;50.756;6.172;2023-03-01T12:51:15;17.20;;;5.07;;
20181;SDS011;10250;50.756;6.172;2023-03-01T12:53:24;14.20;;;4.30;;
20181;SDS011;10250;50.756;6.172;2023-03-01T12:55:29;13.03;;;4.27;;
20181;SDS011;10250;50.756;6.172;2023-03-01T13:02:47;17.70;;;5.40;;
20181;SDS011;10250;50.756;6.172;2023-03-01T13:12:53;13.60;;;4.00;;
20181;SDS011;10250;50.756;6.172;2023-03-01T13:41:01;13.97;;;4.10;;
20181;SDS011;10250;50.756;6.172;2023-03-01T13:51:16;14.47;;;4.00;;
20181;SDS011;10250;50.756;6.172;2023-03-01T13:55:43;11.47;;;3.53;;
20181;SDS011;10250;50.756;6.172;2023-03-01T14:24:48;14.67;;;3.97;;
20181;SDS011;10250;50.756;6.172;2023-03-01T14:42:48;15.77;;;4.23;;
20181;SDS011;10250;50.756;6.172;2023-03-01T14:44:50;15.00;;;3.77;;
20181;SDS011;10250;50.756;6.172;2023-03-01T14:46:52;11.93;;;3.47;;
20181;SDS011;10250;50.756;6.172;2023-03-01T14:48:55;12.53;;;4.47;;
20181;SDS011;10250;50.756;6.172;2023-03-01T15:02:03;12.50;;;3.60;;
20181;SDS011;10250;50.756;6.172;2023-03-01T15:52:33;13.13;;;2.97;;
20181;SDS011;10250;50.756;6.172;2023-03-01T16:34:52;9.03;;;2.40;;
20181;SDS011;10250;50.756;6.172;2023-03-01T17:11:43;11.50;;;3.27;;